sensor_id;sensor_type;location;lat;lon;timestamp;pressure;altitude;pressure_sealevel;temperature;humidity
81802;BME280;71199;52.490;5.448;2023-11-22T00:02:19;102942.38;;;4.26;100.00
81802;BME280;71199;52.490;5.448;2023-11-22T00:04:45;102932.78;;;4.18;100.00
81802;BME280;71199;52.490;5.448;2023-11-22T00:07:11;102929.78;;;4.06;100.00
81802;BME280;71199;52.490;5.448;2023-11-22T00:09:36;102945.81;;;3.94;100.00
81802;BME280;71199;52.490;5.448;2023-11-22T00:12:02;102945.19;;;3.89;100.00
81802;BME280;71199;52.490;5.448;2023-11-22T00:14:27;102951.88;;;3.82;100.00
81802;BME280;71199;52.490;5.448;2023-11-22T00:16:53;102950.06;;;3.63;100.00
81802;BME280;71199;52.490;5.448;2023-11-22T00:19:18;102954.50;;;3.47;100.00
81802;BME280;71199;52.490;5.448;2023-11-22T00:21:47;102961.66;;;3.31;100.00
81802;BME280;71199;52.490;5.448;2023-11-22T00:24:12;102959.69;;;3.15;100.00
81802;BME280;71199;52.490;5.448;2023-11-22T00:26:38;102961.09;;;3.05;100.00
81802;BME280;71199;52.490;5.448;2023-11-22T00:29:03;102955.47;;;2.89;100.00
81802;BME280;71199;52.490;5.448;2023-11-22T00:31:29;102948.94;;;2.74;100.00
81802;BME280;71199;52.490;5.448;2023-11-22T00:33:55;102949.41;;;2.63;100.00
81802;BME280;71199;52.490;5.448;2023-11-22T00:36:20;102941.91;;;2.50;100.00
81802;BME280;71199;52.490;5.448;2023-11-22T00:38:45;102945.03;;;2.40;100.00
81802;BME280;71199;52.490;5.448;2023-11-22T00:41:11;102945.31;;;2.34;100.00
81802;BME280;71199;52.490;5.448;2023-11-22T00:43:36;102946.50;;;2.29;100.00
81802;BME280;71199;52.490;5.448;2023-11-22T00:46:02;102958.59;;;2.20;100.00
81802;BME280;71199;52.490;5.448;2023-11-22T00:48:27;102960.72;;;2.13;100.00
81802;BME280;71199;52.490;5.448;2023-11-22T00:50:53;102960.91;;;2.09;100.00
81802;BME280;71199;52.490;5.448;2023-11-22T00:53:18;102967.53;;;2.01;100.00
81802;BME280;71199;52.490;5.448;2023-11-22T00:55:43;102972.59;;;2.11;100.00
81802;BME280;71199;52.490;5.448;2023-11-22T00:58:09;102977.25;;;2.07;100.00
81802;BME280;71199;52.490;5.448;2023-11-22T01:00:34;102980.22;;;2.01;100.00
81802;BME280;71199;52.490;5.448;2023-11-22T01:03:00;102984.50;;;2.07;100.00
81802;BME280;71199;52.490;5.448;2023-11-22T01:05:25;102987.84;;;2.13;100.00
81802;BME280;71199;52.490;5.448;2023-11-22T01:07:51;103001.41;;;2.13;100.00
81802;BME280;71199;52.490;5.448;2023-11-22T01:10:16;103018.63;;;2.12;100.00
81802;BME280;71199;52.490;5.448;2023-11-22T01:12:42;103015.84;;;2.34;100.00
81802;BME280;71199;52.490;5.448;2023-11-22T01:15:08;103022.25;;;2.33;100.00
81802;BME280;71199;52.490;5.448;2023-11-22T01:17:34;103020.81;;;2.25;100.00
81802;BME280;71199;52.490;5.448;2023-11-22T01:20:00;103022.06;;;2.16;100.00
81802;BME280;71199;52.490;5.448;2023-11-22T01:22:25;103031.19;;;2.15;100.00
81802;BME280;71199;52.490;5.448;2023-11-22T01:24:50;103042.38;;;2.28;100.00
81802;BME280;71199;52.490;5.448;2023-11-22T01:27:16;103030.13;;;2.39;100.00
81802;BME280;71199;52.490;5.448;2023-11-22T01:29:41;103027.09;;;2.47;100.00
81802;BME280;71199;52.490;5.448;2023-11-22T01:32:07;103025.19;;;2.49;100.00
81802;BME280;71199;52.490;5.448;2023-11-22T01:34:34;103027.69;;;2.54;100.00
81802;BME280;71199;52.490;5.448;2023-11-22T01:36:59;103029.66;;;2.50;100.00
81802;BME280;71199;52.490;5.448;2023-11-22T01:39:25;103025.31;;;2.46;100.00
81802;BME280;71199;52.490;5.448;2023-11-22T01:41:51;103019.88;;;2.46;100.00
81802;BME280;71199;52.490;5.448;2023-11-22T01:44:17;103028.16;;;2.43;100.00
81802;BME280;71199;52.490;5.448;2023-11-22T01:46:43;103029.16;;;2.40;100.00
81802;BME280;71199;52.490;5.448;2023-11-22T01:49:10;103030.38;;;2.33;100.00
81802;BME280;71199;52.490;5.448;2023-11-22T01:51:37;103033.72;;;2.40;100.00
81802;BME280;71199;52.490;5.448;2023-11-22T01:54:03;103035.28;;;2.46;100.00
81802;BME280;71199;52.490;5.448;2023-11-22T01:56:30;103030.47;;;2.52;100.00
81802;BME280;71199;52.490;5.448;2023-11-22T01:58:56;103033.31;;;2.49;100.00
81802;BME280;71199;52.490;5.448;2023-11-22T02:01:22;103036.16;;;2.46;100.00
81802;BME280;71199;52.490;5.448;2023-11-22T02:03:48;103046.19;;;2.44;100.00
81802;BME280;71199;52.490;5.448;2023-11-22T02:06:15;103044.88;;;2.32;100.00
81802;BME280;71199;52.490;5.448;2023-11-22T02:08:41;103038.09;;;2.22;100.00
81802;BME280;71199;52.490;5.448;2023-11-22T02:11:08;103035.72;;;2.14;100.00
81802;BME280;71199;52.490;5.448;2023-11-22T02:13:33;103048.63;;;2.08;100.00
81802;BME280;71199;52.490;5.448;2023-11-22T02:15:59;103044.53;;;1.97;100.00
81802;BME280;71199;52.490;5.448;2023-11-22T02:18:26;103037.63;;;1.90;100.00
81802;BME280;71199;52.490;5.448;2023-11-22T02:20:52;103043.91;;;1.91;100.00
81802;BME280;71199;52.490;5.448;2023-11-22T02:23:17;103037.75;;;1.87;100.00
81802;BME280;71199;52.490;5.448;2023-11-22T02:25:43;103037.94;;;1.83;100.00
81802;BME280;71199;52.490;5.448;2023-11-22T02:28:09;103033.53;;;1.80;100.00
81802;BME280;71199;52.490;5.448;2023-11-22T02:30:35;103030.06;;;1.76;100.00
81802;BME280;71199;52.490;5.448;2023-11-22T02:33:00;103031.19;;;1.71;100.00
81802;BME280;71199;52.490;5.448;2023-11-22T02:35:26;103035.16;;;1.62;100.00
81802;BME280;71199;52.490;5.448;2023-11-22T02:37:55;103041.00;;;1.51;100.00
81802;BME280;71199;52.490;5.448;2023-11-22T02:40:21;103039.38;;;1.47;100.00
81802;BME280;71199;52.490;5.448;2023-11-22T02:42:52;103041.25;;;1.45;100.00
81802;BME280;71199;52.490;5.448;2023-11-22T02:45:19;103035.06;;;1.41;100.00
81802;BME280;71199;52.490;5.448;2023-11-22T02:47:45;103033.47;;;1.36;100.00
81802;BME280;71199;52.490;5.448;2023-11-22T02:50:14;103035.50;;;1.31;100.00
81802;BME280;71199;52.490;5.448;2023-11-22T02:52:40;103030.91;;;1.33;100.00
81802;BME280;71199;52.490;5.448;2023-11-22T02:55:07;103035.69;;;1.26;100.00
81802;BME280;71199;52.490;5.448;2023-11-22T02:57:34;103037.75;;;1.19;100.00
81802;BME280;71199;52.490;5.448;2023-11-22T03:00:05;103040.56;;;1.16;100.00
81802;BME280;71199;52.490;5.448;2023-11-22T03:02:30;103034.25;;;1.16;100.00
81802;BME280;71199;52.490;5.448;2023-11-22T03:04:57;103040.44;;;1.19;100.00
81802;BME280;71199;52.490;5.448;2023-11-22T03:07:24;103041.31;;;1.20;100.00
81802;BME280;71199;52.490;5.448;2023-11-22T03:09:50;103046.03;;;1.15;100.00
81802;BME280;71199;52.490;5.448;2023-11-22T03:12:16;103037.78;;;1.18;100.00
81802;BME280;71199;52.490;5.448;2023-11-22T03:14:41;103044.84;;;1.22;100.00
81802;BME280;71199;52.490;5.448;2023-11-22T03:17:06;103047.28;;;1.30;100.00
81802;BME280;71199;52.490;5.448;2023-11-22T03:19:33;103051.88;;;1.28;100.00
81802;BME280;71199;52.490;5.448;2023-11-22T03:22:02;103059.28;;;1.23;100.00
81802;BME280;71199;52.490;5.448;2023-11-22T03:24:31;103070.28;;;1.18;100.00
81802;BME280;71199;52.490;5.448;2023-11-22T03:26:57;103077.78;;;1.11;100.00
81802;BME280;71199;52.490;5.448;2023-11-22T03:29:25;103076.81;;;1.12;100.00
81802;BME280;71199;52.490;5.448;2023-11-22T03:31:50;103083.19;;;1.11;100.00
81802;BME280;71199;52.490;5.448;2023-11-22T03:34:16;103095.72;;;1.14;100.00
81802;BME280;71199;52.490;5.448;2023-11-22T03:36:42;103083.88;;;1.16;100.00
81802;BME280;71199;52.490;5.448;2023-11-22T03:39:07;103090.84;;;1.24;100.00
81802;BME280;71199;52.490;5.448;2023-11-22T03:41:33;103092.50;;;1.28;100.00
81802;BME280;71199;52.490;5.448;2023-11-22T03:43:58;103092.50;;;1.28;100.00
81802;BME280;71199;52.490;5.448;2023-11-22T03:46:24;103102.25;;;1.32;100.00
81802;BME280;71199;52.490;5.448;2023-11-22T03:48:49;103099.44;;;1.35;100.00
81802;BME280;71199;52.490;5.448;2023-11-22T03:51:14;103102.16;;;1.35;100.00
81802;BME280;71199;52.490;5.448;2023-11-22T03:53:41;103107.44;;;1.38;100.00
81802;BME280;71199;52.490;5.448;2023-11-22T03:56:06;103099.22;;;1.41;100.00
81802;BME280;71199;52.490;5.448;2023-11-22T03:58:31;103102.59;;;1.46;100.00
81802;BME280;71199;52.490;5.448;2023-11-22T04:00:57;103105.16;;;1.51;100.00
81802;BME280;71199;52.490;5.448;2023-11-22T04:03:23;103099.56;;;1.55;100.00
81802;BME280;71199;52.490;5.448;2023-11-22T04:05:49;103101.41;;;1.55;100.00
81802;BME280;71199;52.490;5.448;2023-11-22T04:08:14;103110.25;;;1.58;100.00
81802;BME280;71199;52.490;5.448;2023-11-22T04:10:40;103111.84;;;1.64;100.00
81802;BME280;71199;52.490;5.448;2023-11-22T04:13:05;103104.78;;;1.60;100.00
81802;BME280;71199;52.490;5.448;2023-11-22T04:15:31;103117.50;;;1.58;100.00
81802;BME280;71199;52.490;5.448;2023-11-22T04:17:57;103115.91;;;1.52;100.00
81802;BME280;71199;52.490;5.448;2023-11-22T04:20:22;103117.16;;;1.44;100.00
81802;BME280;71199;52.490;5.448;2023-11-22T04:22:47;103126.31;;;1.41;100.00
81802;BME280;71199;52.490;5.448;2023-11-22T04:25:13;103124.75;;;1.34;100.00
81802;BME280;71199;52.490;5.448;2023-11-22T04:27:39;103131.34;;;1.27;100.00
81802;BME280;71199;52.490;5.448;2023-11-22T04:30:06;103127.88;;;1.23;100.00
81802;BME280;71199;52.490;5.448;2023-11-22T04:32:35;103135.06;;;1.24;100.00
81802;BME280;71199;52.490;5.448;2023-11-22T04:35:01;103138.69;;;1.23;100.00
81802;BME280;71199;52.490;5.448;2023-11-22T04:37:29;103133.06;;;1.29;100.00
81802;BME280;71199;52.490;5.448;2023-11-22T04:39:58;103125.66;;;1.34;100.00
81802;BME280;71199;52.490;5.448;2023-11-22T04:42:23;103124.75;;;1.34;100.00
81802;BME280;71199;52.490;5.448;2023-11-22T04:44:48;103121.81;;;1.40;100.00
81802;BME280;71199;52.490;5.448;2023-11-22T04:47:14;103127.19;;;1.41;100.00
81802;BME280;71199;52.490;5.448;2023-11-22T04:49:39;103129.84;;;1.43;100.00
81802;BME280;71199;52.490;5.448;2023-11-22T04:52:04;103129.78;;;1.45;100.00
81802;BME280;71199;52.490;5.448;2023-11-22T04:54:31;103116.88;;;1.51;100.00
81802;BME280;71199;52.490;5.448;2023-11-22T04:56:57;103120.88;;;1.65;100.00
81802;BME280;71199;52.490;5.448;2023-11-22T04:59:22;103125.34;;;1.66;100.00
81802;BME280;71199;52.490;5.448;2023-11-22T05:01:47;103125.22;;;1.69;100.00
81802;BME280;71199;52.490;5.448;2023-11-22T05:04:14;103126.03;;;1.71;100.00
81802;BME280;71199;52.490;5.448;2023-11-22T05:06:39;103118.75;;;1.73;100.00
81802;BME280;71199;52.490;5.448;2023-11-22T05:09:05;103133.00;;;1.78;100.00
81802;BME280;71199;52.490;5.448;2023-11-22T05:11:31;103136.50;;;1.81;100.00
81802;BME280;71199;52.490;5.448;2023-11-22T05:13:56;103119.31;;;1.81;100.00
81802;BME280;71199;52.490;5.448;2023-11-22T05:16:21;103116.44;;;1.86;100.00
81802;BME280;71199;52.490;5.448;2023-11-22T05:18:49;103107.34;;;1.87;100.00
81802;BME280;71199;52.490;5.448;2023-11-22T05:21:15;103106.59;;;1.83;100.00
81802;BME280;71199;52.490;5.448;2023-11-22T05:23:40;103110.25;;;1.82;100.00
81802;BME280;71199;52.490;5.448;2023-11-22T05:26:06;103119.25;;;1.83;100.00
81802;BME280;71199;52.490;5.448;2023-11-22T05:28:31;103111.91;;;1.86;100.00
81802;BME280;71199;52.490;5.448;2023-11-22T05:30:57;103118.25;;;1.85;100.00
81802;BME280;71199;52.490;5.448;2023-11-22T05:33:22;103129.19;;;1.84;100.00
81802;BME280;71199;52.490;5.448;2023-11-22T05:35:49;103120.97;;;1.85;100.00
81802;BME280;71199;52.490;5.448;2023-11-22T05:38:14;103129.22;;;1.82;100.00
81802;BME280;71199;52.490;5.448;2023-11-22T05:40:40;103129.00;;;1.88;100.00
81802;BME280;71199;52.490;5.448;2023-11-22T05:43:06;103134.41;;;1.88;100.00
81802;BME280;71199;52.490;5.448;2023-11-22T05:45:33;103128.16;;;1.86;100.00
81802;BME280;71199;52.490;5.448;2023-11-22T05:48:00;103125.50;;;1.85;100.00
81802;BME280;71199;52.490;5.448;2023-11-22T05:50:25;103130.94;;;1.85;100.00
81802;BME280;71199;52.490;5.448;2023-11-22T05:52:50;103127.22;;;1.87;100.00
81802;BME280;71199;52.490;5.448;2023-11-22T05:55:16;103132.72;;;1.86;100.00
81802;BME280;71199;52.490;5.448;2023-11-22T05:57:42;103142.41;;;1.91;100.00
81802;BME280;71199;52.490;5.448;2023-11-22T06:00:08;103128.22;;;1.85;100.00
81802;BME280;71199;52.490;5.448;2023-11-22T06:02:33;103144.69;;;1.80;100.00
81802;BME280;71199;52.490;5.448;2023-11-22T06:04:59;103141.16;;;1.78;100.00
81802;BME280;71199;52.490;5.448;2023-11-22T06:07:25;103141.97;;;1.80;100.00
81802;BME280;71199;52.490;5.448;2023-11-22T06:09:50;103130.25;;;1.79;100.00
81802;BME280;71199;52.490;5.448;2023-11-22T06:12:15;103129.91;;;1.87;100.00
81802;BME280;71199;52.490;5.448;2023-11-22T06:14:41;103130.59;;;1.94;100.00
81802;BME280;71199;52.490;5.448;2023-11-22T06:17:07;103136.88;;;1.94;100.00
81802;BME280;71199;52.490;5.448;2023-11-22T06:19:32;103151.56;;;1.89;100.00
81802;BME280;71199;52.490;5.448;2023-11-22T06:21:57;103157.94;;;1.88;100.00
81802;BME280;71199;52.490;5.448;2023-11-22T06:24:23;103157.16;;;1.84;100.00
81802;BME280;71199;52.490;5.448;2023-11-22T06:26:48;103169.91;;;1.82;100.00
81802;BME280;71199;52.490;5.448;2023-11-22T06:29:14;103163.47;;;1.85;100.00
81802;BME280;71199;52.490;5.448;2023-11-22T06:31:40;103167.97;;;1.86;100.00
81802;BME280;71199;52.490;5.448;2023-11-22T06:34:05;103165.00;;;1.92;100.00
81802;BME280;71199;52.490;5.448;2023-11-22T06:36:31;103141.53;;;1.91;100.00
81802;BME280;71199;52.490;5.448;2023-11-22T06:38:56;103129.69;;;1.93;100.00
81802;BME280;71199;52.490;5.448;2023-11-22T06:41:21;103109.81;;;1.93;100.00
81802;BME280;71199;52.490;5.448;2023-11-22T06:43:47;103113.66;;;1.87;100.00
81802;BME280;71199;52.490;5.448;2023-11-22T06:46:13;103126.91;;;1.95;100.00
81802;BME280;71199;52.490;5.448;2023-11-22T06:48:41;103135.25;;;1.90;100.00
81802;BME280;71199;52.490;5.448;2023-11-22T06:51:06;103121.63;;;1.92;100.00
81802;BME280;71199;52.490;5.448;2023-11-22T06:53:32;103146.97;;;1.91;100.00
81802;BME280;71199;52.490;5.448;2023-11-22T06:55:57;103151.50;;;1.90;100.00
81802;BME280;71199;52.490;5.448;2023-11-22T06:58:22;103152.31;;;1.92;100.00
81802;BME280;71199;52.490;5.448;2023-11-22T07:00:48;103161.53;;;1.88;100.00
81802;BME280;71199;52.490;5.448;2023-11-22T07:03:13;103152.31;;;1.92;100.00
81802;BME280;71199;52.490;5.448;2023-11-22T07:05:39;103152.44;;;1.89;100.00
81802;BME280;71199;52.490;5.448;2023-11-22T07:08:05;103156.94;;;1.90;100.00
81802;BME280;71199;52.490;5.448;2023-11-22T07:10:30;103161.59;;;1.87;100.00
81802;BME280;71199;52.490;5.448;2023-11-22T07:13:00;103161.34;;;1.93;100.00
81802;BME280;71199;52.490;5.448;2023-11-22T07:15:27;103159.63;;;1.90;100.00
81802;BME280;71199;52.490;5.448;2023-11-22T07:17:52;103150.88;;;1.84;100.00
81802;BME280;71199;52.490;5.448;2023-11-22T07:20:17;103146.56;;;1.78;100.00
81802;BME280;71199;52.490;5.448;2023-11-22T07:22:43;103137.91;;;1.68;100.00
81802;BME280;71199;52.490;5.448;2023-11-22T07:25:09;103142.63;;;1.63;100.00
81802;BME280;71199;52.490;5.448;2023-11-22T07:27:46;103142.69;;;1.61;100.00
81802;BME280;71199;52.490;5.448;2023-11-22T07:30:15;103146.56;;;1.54;100.00
81802;BME280;71199;52.490;5.448;2023-11-22T07:32:41;103149.22;;;1.56;100.00
81802;BME280;71199;52.490;5.448;2023-11-22T07:35:07;103150.22;;;1.53;100.00
81802;BME280;71199;52.490;5.448;2023-11-22T07:37:36;103151.09;;;1.54;100.00
81802;BME280;71199;52.490;5.448;2023-11-22T07:40:06;103148.94;;;1.64;100.00
81802;BME280;71199;52.490;5.448;2023-11-22T07:42:33;103149.03;;;1.60;100.00
81802;BME280;71199;52.490;5.448;2023-11-22T07:44:58;103148.06;;;1.63;100.00
81802;BME280;71199;52.490;5.448;2023-11-22T07:47:23;103149.75;;;1.66;100.00
81802;BME280;71199;52.490;5.448;2023-11-22T07:49:51;103160.78;;;1.61;100.00
81802;BME280;71199;52.490;5.448;2023-11-22T07:52:16;103176.03;;;1.64;100.00
81802;BME280;71199;52.490;5.448;2023-11-22T07:54:42;103204.97;;;1.63;100.00
81802;BME280;71199;52.490;5.448;2023-11-22T07:57:07;103205.84;;;1.64;100.00
81802;BME280;71199;52.490;5.448;2023-11-22T07:59:33;103196.72;;;1.66;100.00
81802;BME280;71199;52.490;5.448;2023-11-22T08:01:58;103211.09;;;1.68;100.00
81802;BME280;71199;52.490;5.448;2023-11-22T08:04:26;103210.91;;;1.73;100.00
81802;BME280;71199;52.490;5.448;2023-11-22T08:06:53;103212.44;;;1.80;100.00
81802;BME280;71199;52.490;5.448;2023-11-22T08:09:24;103206.75;;;1.88;100.00
81802;BME280;71199;52.490;5.448;2023-11-22T08:11:50;103201.09;;;1.94;100.00
81802;BME280;71199;52.490;5.448;2023-11-22T08:14:16;103201.59;;;2.04;100.00
81802;BME280;71199;52.490;5.448;2023-11-22T08:16:42;103204.88;;;2.12;100.00
81802;BME280;71199;52.490;5.448;2023-11-22T08:19:08;103209.91;;;2.22;100.00
81802;BME280;71199;52.490;5.448;2023-11-22T08:21:34;103211.34;;;2.31;100.00
81802;BME280;71199;52.490;5.448;2023-11-22T08:24:00;103214.84;;;2.35;100.00
81802;BME280;71199;52.490;5.448;2023-11-22T08:26:25;103209.97;;;2.43;100.00
81802;BME280;71199;52.490;5.448;2023-11-22T08:28:51;103206.13;;;2.49;100.00
81802;BME280;71199;52.490;5.448;2023-11-22T08:31:16;103205.13;;;2.51;100.00
81802;BME280;71199;52.490;5.448;2023-11-22T08:33:42;103212.88;;;2.60;100.00
81802;BME280;71199;52.490;5.448;2023-11-22T08:36:08;103207.25;;;2.65;100.00
81802;BME280;71199;52.490;5.448;2023-11-22T08:38:34;103204.31;;;2.70;100.00
81802;BME280;71199;52.490;5.448;2023-11-22T08:41:03;103200.88;;;2.66;100.00
81802;BME280;71199;52.490;5.448;2023-11-22T08:43:30;103197.22;;;2.67;100.00
81802;BME280;71199;52.490;5.448;2023-11-22T08:46:00;103193.41;;;2.71;100.00
81802;BME280;71199;52.490;5.448;2023-11-22T08:48:26;103191.53;;;2.73;100.00
81802;BME280;71199;52.490;5.448;2023-11-22T08:50:51;103194.94;;;2.78;100.00
81802;BME280;71199;52.490;5.448;2023-11-22T08:53:19;103194.72;;;2.83;100.00
81802;BME280;71199;52.490;5.448;2023-11-22T08:55:46;103190.88;;;2.89;100.00
81802;BME280;71199;52.490;5.448;2023-11-22T08:58:12;103184.28;;;2.94;100.00
81802;BME280;71199;52.490;5.448;2023-11-22T09:00:37;103192.16;;;3.00;100.00
81802;BME280;71199;52.490;5.448;2023-11-22T09:03:02;103191.22;;;3.01;100.00
81802;BME280;71199;52.490;5.448;2023-11-22T09:05:29;103191.84;;;3.08;100.00
81802;BME280;71199;52.490;5.448;2023-11-22T09:07:54;103197.16;;;3.11;100.00
81802;BME280;71199;52.490;5.448;2023-11-22T09:10:21;103204.13;;;3.17;100.00
81802;BME280;71199;52.490;5.448;2023-11-22T09:12:47;103196.78;;;3.19;100.00
81802;BME280;71199;52.490;5.448;2023-11-22T09:15:13;103195.03;;;3.18;100.00
81802;BME280;71199;52.490;5.448;2023-11-22T09:17:42;103197.53;;;3.22;100.00
81802;BME280;71199;52.490;5.448;2023-11-22T09:20:15;103200.78;;;3.31;100.00
81802;BME280;71199;52.490;5.448;2023-11-22T09:23:07;103205.16;;;3.35;100.00
81802;BME280;71199;52.490;5.448;2023-11-22T09:25:33;103202.91;;;3.45;100.00
81802;BME280;71199;52.490;5.448;2023-11-22T09:28:00;103199.03;;;3.50;100.00
81802;BME280;71199;52.490;5.448;2023-11-22T09:30:29;103210.72;;;3.52;100.00
81802;BME280;71199;52.490;5.448;2023-11-22T09:33:02;103201.75;;;3.50;100.00
81802;BME280;71199;52.490;5.448;2023-11-22T09:35:28;103206.09;;;3.54;100.00
81802;BME280;71199;52.490;5.448;2023-11-22T09:37:58;103212.13;;;3.61;100.00
81802;BME280;71199;52.490;5.448;2023-11-22T09:40:25;103220.59;;;3.74;100.00
81802;BME280;71199;52.490;5.448;2023-11-22T09:42:52;103209.38;;;3.81;100.00
81802;BME280;71199;52.490;5.448;2023-11-22T09:45:19;103194.50;;;3.89;100.00
81802;BME280;71199;52.490;5.448;2023-11-22T09:47:45;103184.66;;;3.86;100.00
81802;BME280;71199;52.490;5.448;2023-11-22T09:50:19;103180.22;;;3.85;100.00
81802;BME280;71199;52.490;5.448;2023-11-22T09:52:50;103190.28;;;3.83;100.00
81802;BME280;71199;52.490;5.448;2023-11-22T09:55:17;103183.88;;;3.84;100.00
81802;BME280;71199;52.490;5.448;2023-11-22T09:57:43;103178.28;;;3.87;100.00
81802;BME280;71199;52.490;5.448;2023-11-22T10:00:10;103179.69;;;3.96;100.00
81802;BME280;71199;52.490;5.448;2023-11-22T10:02:40;103186.06;;;3.95;100.00
81802;BME280;71199;52.490;5.448;2023-11-22T10:05:07;103179.47;;;4.00;100.00
81802;BME280;71199;52.490;5.448;2023-11-22T10:07:34;103188.56;;;3.99;100.00
81802;BME280;71199;52.490;5.448;2023-11-22T10:10:01;103181.31;;;4.00;100.00
81802;BME280;71199;52.490;5.448;2023-11-22T10:12:30;103183.63;;;4.08;100.00
81802;BME280;71199;52.490;5.448;2023-11-22T10:15:11;103173.06;;;4.20;100.00
81802;BME280;71199;52.490;5.448;2023-11-22T10:17:38;103174.56;;;4.26;100.00
81802;BME280;71199;52.490;5.448;2023-11-22T10:20:04;103184.84;;;4.38;100.00
81802;BME280;71199;52.490;5.448;2023-11-22T10:22:44;103181.75;;;4.46;100.00
81802;BME280;71199;52.490;5.448;2023-11-22T10:25:10;103174.25;;;4.51;100.00
81802;BME280;71199;52.490;5.448;2023-11-22T10:27:37;103175.78;;;4.57;99.90
81802;BME280;71199;52.490;5.448;2023-11-22T10:30:03;103168.41;;;4.59;100.00
81802;BME280;71199;52.490;5.448;2023-11-22T10:32:29;103170.31;;;4.57;100.00
81802;BME280;71199;52.490;5.448;2023-11-22T10:34:55;103166.66;;;4.58;100.00
81802;BME280;71199;52.490;5.448;2023-11-22T10:37:20;103160.56;;;4.53;100.00
81802;BME280;71199;52.490;5.448;2023-11-22T10:39:50;103162.25;;;4.55;99.40
81802;BME280;71199;52.490;5.448;2023-11-22T10:42:16;103146.72;;;4.57;100.00
81802;BME280;71199;52.490;5.448;2023-11-22T10:44:42;103137.50;;;4.60;100.00
81802;BME280;71199;52.490;5.448;2023-11-22T10:47:08;103131.91;;;4.63;100.00
81802;BME280;71199;52.490;5.448;2023-11-22T10:49:34;103144.88;;;4.75;100.00
81802;BME280;71199;52.490;5.448;2023-11-22T10:52:01;103138.78;;;4.88;99.41
81802;BME280;71199;52.490;5.448;2023-11-22T10:54:28;103124.69;;;4.97;97.67
81802;BME280;71199;52.490;5.448;2023-11-22T10:56:55;103103.63;;;5.00;99.02
81802;BME280;71199;52.490;5.448;2023-11-22T10:59:22;103074.00;;;5.10;96.26
81802;BME280;71199;52.490;5.448;2023-11-22T11:01:51;103076.94;;;5.07;96.65
81802;BME280;71199;52.490;5.448;2023-11-22T11:04:33;103075.88;;;5.10;97.90
81802;BME280;71199;52.490;5.448;2023-11-22T11:07:01;103083.31;;;5.06;97.82
81802;BME280;71199;52.490;5.448;2023-11-22T11:09:27;103087.28;;;5.00;96.86
81802;BME280;71199;52.490;5.448;2023-11-22T11:11:58;103078.47;;;4.95;97.50
81802;BME280;71199;52.490;5.448;2023-11-22T11:14:25;103069.53;;;5.09;98.24
81802;BME280;71199;52.490;5.448;2023-11-22T11:16:51;103061.44;;;5.08;97.83
81802;BME280;71199;52.490;5.448;2023-11-22T11:19:19;103046.69;;;5.12;97.83
81802;BME280;71199;52.490;5.448;2023-11-22T11:21:49;103048.47;;;5.13;97.30
81802;BME280;71199;52.490;5.448;2023-11-22T11:24:15;103043.56;;;5.02;97.80
81802;BME280;71199;52.490;5.448;2023-11-22T11:26:40;103046.47;;;4.99;97.63
81802;BME280;71199;52.490;5.448;2023-11-22T11:29:29;103048.47;;;4.95;98.68
81802;BME280;71199;52.490;5.448;2023-11-22T11:31:54;103045.69;;;4.97;98.58
81802;BME280;71199;52.490;5.448;2023-11-22T11:34:23;103057.72;;;4.93;97.59
81802;BME280;71199;52.490;5.448;2023-11-22T11:36:52;103054.34;;;4.88;97.27
81802;BME280;71199;52.490;5.448;2023-11-22T11:39:27;103052.50;;;4.88;98.48
81802;BME280;71199;52.490;5.448;2023-11-22T11:42:12;103046.34;;;4.84;98.78
81802;BME280;71199;52.490;5.448;2023-11-22T11:44:51;103043.53;;;4.86;99.00
81802;BME280;71199;52.490;5.448;2023-11-22T11:47:17;103037.91;;;4.89;99.16
81802;BME280;71199;52.490;5.448;2023-11-22T11:49:42;103035.66;;;4.97;98.43
81802;BME280;71199;52.490;5.448;2023-11-22T11:52:08;103036.53;;;4.98;99.12
81802;BME280;71199;52.490;5.448;2023-11-22T11:54:33;103019.78;;;5.05;98.86
81802;BME280;71199;52.490;5.448;2023-11-22T11:57:00;103014.78;;;5.14;98.27
81802;BME280;71199;52.490;5.448;2023-11-22T11:59:26;103002.59;;;5.21;97.52
81802;BME280;71199;52.490;5.448;2023-11-22T12:01:54;103004.84;;;5.29;97.32
81802;BME280;71199;52.490;5.448;2023-11-22T12:04:23;103000.66;;;5.39;97.29
81802;BME280;71199;52.490;5.448;2023-11-22T12:06:49;103003.66;;;5.50;96.88
81802;BME280;71199;52.490;5.448;2023-11-22T12:09:22;103006.19;;;5.53;95.37
81802;BME280;71199;52.490;5.448;2023-11-22T12:11:49;103001.38;;;5.58;94.46
81802;BME280;71199;52.490;5.448;2023-11-22T12:14:15;102997.16;;;5.69;94.13
81802;BME280;71199;52.490;5.448;2023-11-22T12:16:40;102993.63;;;5.67;94.03
81802;BME280;71199;52.490;5.448;2023-11-22T12:19:08;102990.28;;;5.77;93.84
81802;BME280;71199;52.490;5.448;2023-11-22T12:21:34;102993.50;;;5.84;93.86
81802;BME280;71199;52.490;5.448;2023-11-22T12:24:00;102989.03;;;5.83;93.64
81802;BME280;71199;52.490;5.448;2023-11-22T12:26:26;102991.75;;;5.83;93.68
81802;BME280;71199;52.490;5.448;2023-11-22T12:28:51;102995.88;;;5.74;91.76
81802;BME280;71199;52.490;5.448;2023-11-22T12:31:18;102979.34;;;5.77;92.24
81802;BME280;71199;52.490;5.448;2023-11-22T12:33:43;102968.88;;;5.70;92.32
81802;BME280;71199;52.490;5.448;2023-11-22T12:36:10;102967.81;;;5.72;93.41
81802;BME280;71199;52.490;5.448;2023-11-22T12:38:36;102966.94;;;5.72;93.88
81802;BME280;71199;52.490;5.448;2023-11-22T12:41:02;102962.28;;;5.74;92.71
81802;BME280;71199;52.490;5.448;2023-11-22T12:43:29;102952.94;;;5.78;92.83
81802;BME280;71199;52.490;5.448;2023-11-22T12:46:07;102951.72;;;5.83;92.75
81802;BME280;71199;52.490;5.448;2023-11-22T12:48:33;102950.63;;;5.86;93.01
81802;BME280;71199;52.490;5.448;2023-11-22T12:50:59;102952.41;;;5.87;91.50